Time;durP1;ratioP1;P1;durP2;ratioP2;P2;SDS_P1;SDS_P2;PMS_P1;PMS_P2;Temp;Humidity;BMP_temperature;BMP_pressure;BME280_temperature;BME280_humidity;BME280_pressure;Samples;Min_cycle;Max_cycle;Signal;HPM_P1;HPM_P2
2022/05/10 00:00:54;;;;;;;2.17;1.90;;;;;;;;;;5052711;28;20289;-79
2022/05/10 00:03:23;;;;;;;2.00;1.80;;;;;;;;;;5053472;28;20257;-79
2022/05/10 00:05:50;;;;;;;2.73;2.33;;;;;;;;;;5052931;28;20642;-79
2022/05/10 00:08:18;;;;;;;2.20;2.00;;;;;;;;;;5051602;28;20200;-79
2022/05/10 00:10:46;;;;;;;2.07;1.70;;;;;;;;;;5051576;28;20252;-79
2022/05/10 00:13:14;;;;;;;3.27;1.83;;;;;;;;;;5052887;28;20693;-79
2022/05/10 00:15:44;;;;;;;1.93;1.80;;;;;;;;;;5052806;28;20689;-79
2022/05/10 00:18:14;;;;;;;2.10;1.90;;;;;;;;;;5052901;28;20736;-79
2022/05/10 00:20:42;;;;;;;2.07;1.80;;;;;;;;;;5052474;28;20676;-79
2022/05/10 00:23:10;;;;;;;1.93;1.73;;;;;;;;;;5053000;28;20276;-79
2022/05/10 00:25:38;;;;;;;1.80;1.70;;;;;;;;;;5052851;28;20575;-79
2022/05/10 00:28:06;;;;;;;4.50;1.83;;;;;;;;;;5052638;28;20263;-79
2022/05/10 00:30:33;;;;;;;1.87;1.77;;;;;;;;;;5052364;28;20221;-79
2022/05/10 00:33:02;;;;;;;2.13;1.93;;;;;;;;;;5052693;28;20281;-79
2022/05/10 00:35:31;;;;;;;2.30;1.90;;;;;;;;;;5052394;28;20276;-79
2022/05/10 00:38:01;;;;;;;2.63;2.07;;;;;;;;;;5052327;28;20240;-79
2022/05/10 00:40:31;;;;;;;2.37;1.83;;;;;;;;;;5052069;28;20563;-79
2022/05/10 00:43:02;;;;;;;2.00;1.80;;;;;;;;;;5052408;28;20670;-79
2022/05/10 00:45:37;;;;;;;2.37;1.83;;;;;;;;;;5052531;28;20209;-79
2022/05/10 00:48:11;;;;;;;2.77;1.97;;;;;;;;;;5051757;28;20581;-79
2022/05/10 00:50:43;;;;;;;2.30;1.83;;;;;;;;;;5051769;28;20211;-79
2022/05/10 00:53:13;;;;;;;3.50;2.67;;;;;;;;;;5052284;28;20664;-79
2022/05/10 00:55:42;;;;;;;6.17;2.27;;;;;;;;;;5052139;28;20178;-78
2022/05/10 00:58:17;;;;;;;5.13;2.33;;;;;;;;;;5052001;28;20809;-79
2022/05/10 01:00:45;;;;;;;2.17;1.70;;;;;;;;;;5051649;28;20604;-78
2022/05/10 01:03:18;;;;;;;3.20;1.80;;;;;;;;;;5052008;28;20741;-78
2022/05/10 01:05:50;;;;;;;2.23;1.93;;;;;;;;;;5051854;28;20190;-79
2022/05/10 01:08:22;;;;;;;2.83;1.93;;;;;;;;;;5052152;28;20628;-79
2022/05/10 01:10:53;;;;;;;2.00;1.80;;;;;;;;;;5051766;28;20213;-79
2022/05/10 01:13:27;;;;;;;5.30;1.80;;;;;;;;;;5058732;28;20655;-79
2022/05/10 01:16:02;;;;;;;1.90;1.67;;;;;;;;;;5071849;28;20199;-79
2022/05/10 01:18:31;;;;;;;2.13;1.93;;;;;;;;;;5071671;28;20191;-78
2022/05/10 01:21:04;;;;;;;1.93;1.80;;;;;;;;;;5071582;28;20748;-79
2022/05/10 01:24:00;;;;;;;4.33;1.83;;;;;;;;;;5069377;28;20193;-79
2022/05/10 01:26:34;;;;;;;1.93;1.83;;;;;;;;;;5068891;28;20204;-80
2022/05/10 01:29:06;;;;;;;2.33;1.87;;;;;;;;;;5071150;28;20209;-80
2022/05/10 01:31:35;;;;;;;3.37;2.03;;;;;;;;;;5071620;28;20185;-80
2022/05/10 01:34:05;;;;;;;1.90;1.63;;;;;;;;;;5071483;28;20284;-80
2022/05/10 01:36:36;;;;;;;2.13;1.93;;;;;;;;;;5071628;28;20197;-80
2022/05/10 01:39:06;;;;;;;2.13;1.87;;;;;;;;;;5071513;28;20226;-79
2022/05/10 01:41:44;;;;;;;1.93;1.70;;;;;;;;;;5071854;28;20266;-80
2022/05/10 01:44:18;;;;;;;5.00;1.70;;;;;;;;;;5071047;28;20193;-80
2022/05/10 01:46:47;;;;;;;3.10;1.90;;;;;;;;;;5071534;28;20212;-80
2022/05/10 01:49:23;;;;;;;10.97;2.70;;;;;;;;;;5071123;28;20266;-80
2022/05/10 01:51:55;;;;;;;3.33;1.80;;;;;;;;;;5071237;28;20180;-79
2022/05/10 01:54:55;;;;;;;4.77;2.47;;;;;;;;;;5071235;28;20197;-80
2022/05/10 01:57:23;;;;;;;3.20;2.20;;;;;;;;;;5064443;28;20232;-80
2022/05/10 01:59:55;;;;;;;2.67;2.47;;;;;;;;;;5074553;28;20189;-80
2022/05/10 02:02:25;;;;;;;1.97;1.70;;;;;;;;;;5075327;28;20289;-80
2022/05/10 02:04:55;;;;;;;3.43;2.03;;;;;;;;;;5075624;28;20208;-79
2022/05/10 02:07:24;;;;;;;1.63;1.53;;;;;;;;;;5075140;28;20276;-79
2022/05/10 02:09:58;;;;;;;3.50;2.20;;;;;;;;;;5074938;28;20708;-79
2022/05/10 02:12:32;;;;;;;2.97;2.67;;;;;;;;;;5074842;28;20280;-79
2022/05/10 02:15:04;;;;;;;4.57;2.60;;;;;;;;;;5075353;28;20264;-79
2022/05/10 02:17:35;;;;;;;3.70;2.43;;;;;;;;;;5075040;28;20279;-79
2022/05/10 02:20:06;;;;;;;2.37;2.07;;;;;;;;;;5075121;28;20185;-78
2022/05/10 02:22:39;;;;;;;2.57;2.33;;;;;;;;;;5074980;28;20181;-79
2022/05/10 02:25:10;;;;;;;6.00;2.43;;;;;;;;;;5074586;28;20193;-79
2022/05/10 02:27:40;;;;;;;2.13;1.93;;;;;;;;;;5074901;28;20277;-79
2022/05/10 02:30:13;;;;;;;2.53;2.33;;;;;;;;;;5074920;28;20292;-79
2022/05/10 02:35:27;;;;;;;2.10;2.00;;;;;;;;;;5074689;28;20227;-78
2022/05/10 02:37:54;;;;;;;2.97;2.70;;;;;;;;;;5075015;28;20207;-78
2022/05/10 02:40:22;;;;;;;4.50;2.43;;;;;;;;;;5074330;28;20292;-79
2022/05/10 02:42:49;;;;;;;3.00;1.90;;;;;;;;;;5074895;28;20272;-79
2022/05/10 02:45:19;;;;;;;2.30;2.00;;;;;;;;;;5074355;28;20288;-79
2022/05/10 02:47:48;;;;;;;4.30;2.20;;;;;;;;;;5074603;28;20291;-79
2022/05/10 02:50:21;;;;;;;2.43;2.10;;;;;;;;;;5073990;28;20217;-79
2022/05/10 02:52:48;;;;;;;3.07;2.40;;;;;;;;;;5074523;28;20189;-79
2022/05/10 02:55:18;;;;;;;2.63;2.33;;;;;;;;;;5074310;28;20296;-79
2022/05/10 02:57:46;;;;;;;4.50;2.10;;;;;;;;;;5073906;28;20316;-78
2022/05/10 03:00:14;;;;;;;1.83;1.73;;;;;;;;;;5074425;28;20606;-79
2022/05/10 03:02:51;;;;;;;2.47;2.33;;;;;;;;;;5074710;28;20284;-80
2022/05/10 03:05:18;;;;;;;2.13;2.03;;;;;;;;;;5074368;28;20572;-79
2022/05/10 03:07:45;;;;;;;3.17;2.60;;;;;;;;;;5074216;28;20287;-80
2022/05/10 03:10:12;;;;;;;2.10;1.90;;;;;;;;;;5073346;28;20224;-79
2022/05/10 03:12:40;;;;;;;3.47;2.17;;;;;;;;;;5074087;28;20579;-79
2022/05/10 03:15:08;;;;;;;5.43;2.03;;;;;;;;;;5073840;28;20193;-79
2022/05/10 03:17:35;;;;;;;3.53;2.70;;;;;;;;;;5074034;28;20239;-79
2022/05/10 03:20:04;;;;;;;2.90;2.60;;;;;;;;;;5073885;28;20281;-79
2022/05/10 03:22:32;;;;;;;3.67;2.80;;;;;;;;;;5073897;28;20280;-79
2022/05/10 03:24:59;;;;;;;3.20;2.40;;;;;;;;;;5073721;28;20247;-79
2022/05/10 03:27:26;;;;;;;3.70;2.83;;;;;;;;;;5073872;28;20204;-79
2022/05/10 03:29:53;;;;;;;5.83;3.03;;;;;;;;;;5073896;28;20584;-79
2022/05/10 03:32:21;;;;;;;2.67;2.47;;;;;;;;;;5073519;28;20236;-80
2022/05/10 03:34:58;;;;;;;6.40;2.80;;;;;;;;;;5073538;28;20651;-79
2022/05/10 03:37:29;;;;;;;4.23;3.07;;;;;;;;;;5073713;28;20189;-80
2022/05/10 03:39:57;;;;;;;7.83;3.93;;;;;;;;;;5073197;28;20193;-79
2022/05/10 03:42:24;;;;;;;7.30;3.40;;;;;;;;;;5071180;28;20284;-81
2022/05/10 03:44:52;;;;;;;3.43;2.80;;;;;;;;;;5073314;28;20737;-80
2022/05/10 03:47:20;;;;;;;4.93;3.17;;;;;;;;;;5073468;28;20204;-80
2022/05/10 03:49:48;;;;;;;3.57;3.13;;;;;;;;;;5073088;28;20221;-80
2022/05/10 03:52:16;;;;;;;9.40;3.67;;;;;;;;;;5073438;28;20317;-80
2022/05/10 03:54:45;;;;;;;12.63;3.20;;;;;;;;;;5073118;28;20208;-79
2022/05/10 03:57:12;;;;;;;6.10;2.87;;;;;;;;;;5073108;28;20233;-80
2022/05/10 03:59:41;;;;;;;5.87;3.13;;;;;;;;;;5073010;28;20193;-80
2022/05/10 04:02:10;;;;;;;6.53;4.20;;;;;;;;;;5073116;28;20237;-80
2022/05/10 04:04:38;;;;;;;4.60;3.83;;;;;;;;;;5072846;28;20292;-80
2022/05/10 04:07:05;;;;;;;4.33;3.90;;;;;;;;;;5073120;28;20284;-80
2022/05/10 04:09:33;;;;;;;5.10;3.90;;;;;;;;;;5072604;28;20201;-80
2022/05/10 04:12:01;;;;;;;9.77;5.37;;;;;;;;;;5072840;28;20198;-80
2022/05/10 04:14:29;;;;;;;7.03;4.70;;;;;;;;;;5072742;28;20232;-80
2022/05/10 04:16:56;;;;;;;7.53;4.60;;;;;;;;;;5072787;28;20754;-80
2022/05/10 04:19:24;;;;;;;4.43;4.03;;;;;;;;;;5072427;28;20232;-80
2022/05/10 04:21:51;;;;;;;3.60;3.30;;;;;;;;;;5072182;28;20638;-80
2022/05/10 04:24:18;;;;;;;8.00;3.37;;;;;;;;;;5072835;28;20284;-80
2022/05/10 04:26:46;;;;;;;5.80;4.23;;;;;;;;;;5072427;28;20600;-80
2022/05/10 04:29:14;;;;;;;6.40;4.10;;;;;;;;;;5072578;28;20632;-80
2022/05/10 04:31:42;;;;;;;4.03;3.50;;;;;;;;;;5072481;28;20231;-79
2022/05/10 04:34:09;;;;;;;2.93;2.50;;;;;;;;;;5070403;28;20204;-79
2022/05/10 04:36:36;;;;;;;8.23;3.60;;;;;;;;;;5052845;28;20565;-79
2022/05/10 04:39:04;;;;;;;5.13;3.77;;;;;;;;;;5052388;28;20288;-79
2022/05/10 04:41:33;;;;;;;6.90;3.33;;;;;;;;;;5052221;28;20238;-79
2022/05/10 04:44:02;;;;;;;13.37;4.93;;;;;;;;;;5052017;28;20213;-80
2022/05/10 04:46:35;;;;;;;9.43;4.57;;;;;;;;;;5052558;28;20251;-80
2022/05/10 04:49:03;;;;;;;7.20;3.60;;;;;;;;;;5052600;28;20579;-80
2022/05/10 04:51:30;;;;;;;3.07;2.80;;;;;;;;;;5051928;28;20312;-79
2022/05/10 04:53:57;;;;;;;3.97;3.37;;;;;;;;;;5052152;28;20289;-79
2022/05/10 04:56:25;;;;;;;4.30;2.80;;;;;;;;;;5051927;28;20193;-79
2022/05/10 04:58:54;;;;;;;3.80;2.80;;;;;;;;;;5052182;28;20193;-80
2022/05/10 05:01:25;;;;;;;4.63;3.00;;;;;;;;;;5052313;28;20216;-79
2022/05/10 05:03:56;;;;;;;6.90;2.90;;;;;;;;;;5052130;28;20186;-79
2022/05/10 05:06:24;;;;;;;7.60;2.73;;;;;;;;;;5052018;28;20186;-79
2022/05/10 05:08:52;;;;;;;4.07;3.20;;;;;;;;;;5051912;28;20693;-79
2022/05/10 05:11:19;;;;;;;4.47;2.73;;;;;;;;;;5051810;28;20704;-80
2022/05/10 05:13:46;;;;;;;4.63;3.63;;;;;;;;;;5051711;28;20198;-80
2022/05/10 05:16:13;;;;;;;9.70;3.37;;;;;;;;;;5052119;28;20640;-79
2022/05/10 05:18:40;;;;;;;6.03;2.73;;;;;;;;;;5051859;28;20198;-79
2022/05/10 05:21:09;;;;;;;6.33;3.10;;;;;;;;;;5052025;28;20280;-80
2022/05/10 05:23:37;;;;;;;4.30;2.80;;;;;;;;;;5051864;28;20193;-79
2022/05/10 05:26:05;;;;;;;9.73;3.10;;;;;;;;;;5051911;28;20326;-80
2022/05/10 05:28:32;;;;;;;5.83;2.93;;;;;;;;;;5052105;28;20275;-80
2022/05/10 05:31:00;;;;;;;4.07;2.67;;;;;;;;;;5051497;28;20320;-80
2022/05/10 05:33:27;;;;;;;4.63;2.90;;;;;;;;;;5051612;28;20622;-79
2022/05/10 05:35:55;;;;;;;2.50;2.30;;;;;;;;;;5051370;28;20237;-80
2022/05/10 05:38:24;;;;;;;2.97;2.40;;;;;;;;;;5051712;28;20288;-80
2022/05/10 05:40:51;;;;;;;3.87;2.47;;;;;;;;;;5051229;28;20237;-80
2022/05/10 05:43:19;;;;;;;4.73;2.83;;;;;;;;;;5052004;28;20276;-80
2022/05/10 05:45:47;;;;;;;3.80;2.50;;;;;;;;;;5051445;28;20675;-80
2022/05/10 05:48:14;;;;;;;3.17;2.87;;;;;;;;;;5051686;28;20206;-79
2022/05/10 05:50:41;;;;;;;6.67;3.70;;;;;;;;;;5051006;28;20316;-80
2022/05/10 05:53:08;;;;;;;7.40;3.67;;;;;;;;;;5051893;28;20198;-80
2022/05/10 05:55:38;;;;;;;4.67;2.30;;;;;;;;;;5051623;28;20299;-80
2022/05/10 05:58:05;;;;;;;2.83;2.30;;;;;;;;;;5051378;28;20234;-80
2022/05/10 06:00:32;;;;;;;4.87;2.93;;;;;;;;;;5051305;28;20321;-79
2022/05/10 06:02:59;;;;;;;4.70;3.70;;;;;;;;;;5051121;28;20233;-80
2022/05/10 06:05:28;;;;;;;2.80;2.53;;;;;;;;;;5051330;28;20198;-80
2022/05/10 06:07:55;;;;;;;4.33;2.20;;;;;;;;;;5051630;28;20205;-80
2022/05/10 06:10:22;;;;;;;4.20;3.03;;;;;;;;;;5051414;28;20343;-79
2022/05/10 06:12:51;;;;;;;3.00;2.60;;;;;;;;;;5051257;28;20715;-80
2022/05/10 06:15:19;;;;;;;2.70;2.17;;;;;;;;;;5051137;28;20296;-80
2022/05/10 06:17:48;;;;;;;4.97;2.50;;;;;;;;;;5051316;28;20199;-80
2022/05/10 06:20:18;;;;;;;3.20;2.33;;;;;;;;;;5051087;28;20247;-80
2022/05/10 06:22:45;;;;;;;3.53;2.10;;;;;;;;;;5051085;28;20734;-80
2022/05/10 06:25:15;;;;;;;4.03;2.43;;;;;;;;;;5050872;28;20289;-80
2022/05/10 06:27:42;;;;;;;4.03;2.40;;;;;;;;;;5051301;28;20194;-80
2022/05/10 06:30:12;;;;;;;7.03;2.57;;;;;;;;;;5050953;28;20208;-80
2022/05/10 06:32:40;;;;;;;2.90;1.77;;;;;;;;;;5050967;28;20205;-79
2022/05/10 06:35:08;;;;;;;2.40;2.20;;;;;;;;;;5051261;28;20198;-80
2022/05/10 06:40:21;;;;;;;2.37;2.17;;;;;;;;;;5051195;28;20187;-80
2022/05/10 06:42:48;;;;;;;6.17;2.40;;;;;;;;;;5051194;28;20628;-80
2022/05/10 06:45:18;;;;;;;2.83;2.40;;;;;;;;;;5051538;28;20284;-80
2022/05/10 06:47:48;;;;;;;3.97;2.10;;;;;;;;;;5054644;28;20182;-80
2022/05/10 06:50:17;;;;;;;4.57;2.13;;;;;;;;;;5054153;28;20276;-80
2022/05/10 06:52:44;;;;;;;2.20;2.00;;;;;;;;;;5054527;28;20194;-80
2022/05/10 06:55:12;;;;;;;10.20;2.53;;;;;;;;;;5054576;28;20197;-80
2022/05/10 06:57:40;;;;;;;2.60;2.23;;;;;;;;;;5054217;28;20324;-80
2022/05/10 07:00:09;;;;;;;3.63;2.67;;;;;;;;;;5054376;28;20199;-80
2022/05/10 07:02:38;;;;;;;3.47;2.80;;;;;;;;;;5054650;28;20655;-80
2022/05/10 07:05:06;;;;;;;2.47;2.27;;;;;;;;;;5054107;28;20677;-80
2022/05/10 07:07:33;;;;;;;11.60;3.10;;;;;;;;;;5054335;28;20675;-80
2022/05/10 07:10:00;;;;;;;2.93;2.43;;;;;;;;;;5053596;28;20289;-79
2022/05/10 07:12:28;;;;;;;9.90;5.20;;;;;;;;;;5054094;28;20220;-81
2022/05/10 07:14:55;;;;;;;10.73;5.23;;;;;;;;;;5053880;28;20300;-81
2022/05/10 07:17:22;;;;;;;4.70;2.67;;;;;;;;;;5054045;28;20205;-80
2022/05/10 07:19:51;;;;;;;3.57;2.43;;;;;;;;;;5053594;28;20204;-80
2022/05/10 07:22:18;;;;;;;3.67;2.13;;;;;;;;;;5054525;28;20205;-80
2022/05/10 07:24:45;;;;;;;5.90;4.70;;;;;;;;;;5053714;28;20198;-81
2022/05/10 07:27:12;;;;;;;3.77;2.20;;;;;;;;;;5054047;28;20738;-80
2022/05/10 07:29:40;;;;;;;3.03;1.83;;;;;;;;;;5053488;28;20205;-81
2022/05/10 07:32:09;;;;;;;4.97;2.17;;;;;;;;;;5053819;28;20225;-80
2022/05/10 07:34:36;;;;;;;3.47;2.63;;;;;;;;;;5053559;28;20201;-81
2022/05/10 07:37:05;;;;;;;2.40;2.10;;;;;;;;;;5053512;28;20194;-80
2022/05/10 07:39:32;;;;;;;2.83;2.13;;;;;;;;;;5053443;28;20288;-80
2022/05/10 07:42:03;;;;;;;4.50;2.20;;;;;;;;;;5054005;28;20194;-80
2022/05/10 07:44:30;;;;;;;2.33;2.10;;;;;;;;;;5053610;28;20225;-80
2022/05/10 07:46:57;;;;;;;2.43;2.03;;;;;;;;;;5053485;28;20281;-80
2022/05/10 07:49:25;;;;;;;3.60;2.97;;;;;;;;;;5053487;28;20596;-80
2022/05/10 07:51:52;;;;;;;9.30;5.77;;;;;;;;;;5053400;28;20272;-80
2022/05/10 07:54:21;;;;;;;13.93;9.53;;;;;;;;;;5053011;28;20278;-80
2022/05/10 07:56:48;;;;;;;3.67;2.70;;;;;;;;;;5053037;28;20581;-81
2022/05/10 07:59:16;;;;;;;3.07;2.70;;;;;;;;;;5052838;28;20192;-81
2022/05/10 08:01:43;;;;;;;3.70;1.90;;;;;;;;;;5053564;28;20248;-81
2022/05/10 08:04:10;;;;;;;3.00;2.20;;;;;;;;;;5053063;28;20252;-80
2022/05/10 08:06:37;;;;;;;4.30;2.10;;;;;;;;;;5052943;28;20741;-80
2022/05/10 08:09:05;;;;;;;2.37;2.03;;;;;;;;;;5052893;28;20197;-80
2022/05/10 08:11:33;;;;;;;3.87;2.03;;;;;;;;;;5052970;28;20743;-81
2022/05/10 08:14:00;;;;;;;1.97;1.80;;;;;;;;;;5052980;28;20201;-81
2022/05/10 08:16:31;;;;;;;4.03;1.90;;;;;;;;;;5053253;28;20220;-81
2022/05/10 08:18:58;;;;;;;2.53;1.93;;;;;;;;;;5052678;28;20197;-80
2022/05/10 08:21:25;;;;;;;2.30;1.93;;;;;;;;;;5052763;28;20641;-81
2022/05/10 08:23:55;;;;;;;6.53;1.87;;;;;;;;;;5053099;28;20224;-80
2022/05/10 08:26:22;;;;;;;5.00;1.90;;;;;;;;;;5052417;28;20204;-81
2022/05/10 08:28:51;;;;;;;3.07;1.73;;;;;;;;;;5053115;28;20221;-80
2022/05/10 08:31:20;;;;;;;2.10;1.80;;;;;;;;;;5052329;28;20312;-81
2022/05/10 08:33:48;;;;;;;1.80;1.70;;;;;;;;;;5052348;28;20663;-81
2022/05/10 08:36:16;;;;;;;4.10;2.53;;;;;;;;;;5052435;28;20202;-81
2022/05/10 08:38:43;;;;;;;4.20;1.83;;;;;;;;;;5052532;28;20206;-81
2022/05/10 08:41:13;;;;;;;2.33;1.83;;;;;;;;;;5052071;28;20226;-81
2022/05/10 08:43:42;;;;;;;3.03;2.07;;;;;;;;;;5052996;28;20186;-81
2022/05/10 08:46:13;;;;;;;2.50;1.97;;;;;;;;;;5052228;28;20197;-81
2022/05/10 08:48:41;;;;;;;3.27;2.23;;;;;;;;;;5052773;28;20269;-81
2022/05/10 08:51:09;;;;;;;3.53;1.90;;;;;;;;;;5052091;28;20292;-81
2022/05/10 08:53:36;;;;;;;2.20;2.00;;;;;;;;;;5052361;28;20300;-80
2022/05/10 08:56:08;;;;;;;2.57;2.37;;;;;;;;;;5052043;28;20194;-81
2022/05/10 08:58:47;;;;;;;2.13;1.93;;;;;;;;;;5052124;28;20324;-81
2022/05/10 09:01:20;;;;;;;1.83;1.73;;;;;;;;;;5052023;28;20276;-81
2022/05/10 09:03:55;;;;;;;2.30;2.10;;;;;;;;;;5051883;28;20186;-81
2022/05/10 09:06:29;;;;;;;3.70;1.83;;;;;;;;;;5052308;28;20196;-81
2022/05/10 09:09:05;;;;;;;1.83;1.70;;;;;;;;;;5051447;28;20181;-81
2022/05/10 09:11:44;;;;;;;2.03;1.77;;;;;;;;;;5051715;28;20942;-81
2022/05/10 09:14:14;;;;;;;6.53;4.43;;;;;;;;;;5051934;28;20197;-81
2022/05/10 09:16:42;;;;;;;3.10;2.80;;;;;;;;;;5052014;28;20688;-81
2022/05/10 09:19:12;;;;;;;7.63;3.07;;;;;;;;;;5051821;28;20308;-81
2022/05/10 09:21:48;;;;;;;7.50;2.97;;;;;;;;;;5051669;28;20233;-81
2022/05/10 09:24:25;;;;;;;5.60;1.97;;;;;;;;;;5051741;28;20185;-81
2022/05/10 09:26:54;;;;;;;2.20;2.00;;;;;;;;;;5052166;28;20197;-81
2022/05/10 09:29:33;;;;;;;3.60;1.60;;;;;;;;;;5051613;28;20581;-82
2022/05/10 09:35:07;;;;;;;2.83;1.77;;;;;;;;;;5051790;28;20597;-81
2022/05/10 09:37:37;;;;;;;2.93;1.83;;;;;;;;;;5052063;28;20621;-81
2022/05/10 09:40:09;;;;;;;4.77;2.33;;;;;;;;;;5051593;28;20247;-81
2022/05/10 09:42:38;;;;;;;3.27;2.07;;;;;;;;;;5052081;28;20273;-81
2022/05/10 09:45:08;;;;;;;6.30;2.00;;;;;;;;;;5051434;28;20204;-81
2022/05/10 09:47:36;;;;;;;3.07;2.20;;;;;;;;;;5051621;28;20204;-81
2022/05/10 09:50:16;;;;;;;3.80;1.70;;;;;;;;;;5051225;28;20255;-81
2022/05/10 09:52:43;;;;;;;2.47;1.70;;;;;;;;;;5051558;28;20252;-81
2022/05/10 09:55:17;;;;;;;1.87;1.63;;;;;;;;;;5051244;28;20674;-81
2022/05/10 09:57:46;;;;;;;2.07;1.87;;;;;;;;;;5051120;28;20325;-81
2022/05/10 10:00:16;;;;;;;2.23;1.90;;;;;;;;;;5051105;28;20220;-81
2022/05/10 10:02:45;;;;;;;1.90;1.70;;;;;;;;;;5051746;28;20202;-81
2022/05/10 10:05:23;;;;;;;2.10;1.90;;;;;;;;;;5051323;28;20202;-81
2022/05/10 10:07:53;;;;;;;4.67;2.20;;;;;;;;;;5051513;28;20213;-81
2022/05/10 10:10:25;;;;;;;2.70;1.67;;;;;;;;;;5051290;28;20236;-81
2022/05/10 10:12:52;;;;;;;3.37;2.07;;;;;;;;;;5051332;28;20305;-81
2022/05/10 10:15:26;;;;;;;4.43;1.83;;;;;;;;;;5051027;28;20251;-80
2022/05/10 10:17:56;;;;;;;4.33;1.80;;;;;;;;;;5051673;28;20241;-81
2022/05/10 10:20:34;;;;;;;3.23;1.63;;;;;;;;;;5052053;28;20205;-81
2022/05/10 10:23:03;;;;;;;3.23;1.80;;;;;;;;;;5055495;28;20182;-81
2022/05/10 10:25:35;;;;;;;2.20;1.63;;;;;;;;;;5054664;28;20670;-81
2022/05/10 10:28:07;;;;;;;6.10;1.77;;;;;;;;;;5055059;28;20277;-81
2022/05/10 10:30:36;;;;;;;1.50;1.40;;;;;;;;;;5054858;28;20236;-81
2022/05/10 10:33:09;;;;;;;2.10;1.90;;;;;;;;;;5054933;28;20256;-81
2022/05/10 10:35:39;;;;;;;2.43;1.63;;;;;;;;;;5054426;28;20186;-81
2022/05/10 10:38:18;;;;;;;4.40;2.00;;;;;;;;;;5054931;28;20190;-81
2022/05/10 10:40:48;;;;;;;2.20;1.80;;;;;;;;;;5054537;28;20643;-81
2022/05/10 10:43:21;;;;;;;4.80;2.03;;;;;;;;;;5054812;28;20274;-81
2022/05/10 10:45:51;;;;;;;5.60;2.90;;;;;;;;;;5054585;28;20269;-81
2022/05/10 10:48:29;;;;;;;3.97;2.13;;;;;;;;;;5054477;28;20204;-81
2022/05/10 10:50:57;;;;;;;1.90;1.80;;;;;;;;;;5054627;28;20213;-81
2022/05/10 10:53:26;;;;;;;9.80;2.40;;;;;;;;;;5054731;28;20325;-81
2022/05/10 10:56:28;;;;;;;1.77;1.60;;;;;;;;;;5054665;28;20228;-81
2022/05/10 10:59:08;;;;;;;3.03;1.60;;;;;;;;;;5047814;28;20198;-81
2022/05/10 11:01:49;;;;;;;2.30;2.00;;;;;;;;;;5054465;28;20186;-81
2022/05/10 11:04:35;;;;;;;3.90;2.03;;;;;;;;;;5054425;28;20222;-81
2022/05/10 11:07:05;;;;;;;2.17;1.83;;;;;;;;;;5054222;28;20280;-81
2022/05/10 11:09:47;;;;;;;1.77;1.67;;;;;;;;;;5054139;28;20201;-81
2022/05/10 11:12:29;;;;;;;4.03;2.33;;;;;;;;;;5054148;28;20574;-81
2022/05/10 11:15:09;;;;;;;3.73;1.70;;;;;;;;;;5053841;28;20200;-81
2022/05/10 11:17:48;;;;;;;2.37;1.63;;;;;;;;;;5054081;28;20196;-81
2022/05/10 11:20:22;;;;;;;2.60;2.07;;;;;;;;;;5053885;28;20276;-81
2022/05/10 11:22:56;;;;;;;2.40;1.70;;;;;;;;;;5054144;28;20638;-81
2022/05/10 11:25:34;;;;;;;3.93;2.00;;;;;;;;;;5053932;28;20585;-81
2022/05/10 11:28:13;;;;;;;2.87;1.60;;;;;;;;;;5053982;28;20243;-81
2022/05/10 11:30:45;;;;;;;4.30;1.60;;;;;;;;;;5053586;28;20635;-81
2022/05/10 11:33:22;;;;;;;2.10;2.00;;;;;;;;;;5053652;28;20712;-81
2022/05/10 11:35:58;;;;;;;2.53;1.47;;;;;;;;;;5053422;28;20225;-81
2022/05/10 11:38:54;;;;;;;5.37;1.90;;;;;;;;;;5053737;28;20185;-82
2022/05/10 11:41:29;;;;;;;2.53;1.80;;;;;;;;;;5053639;28;20179;-81
2022/05/10 11:44:24;;;;;;;4.20;1.80;;;;;;;;;;5053507;28;20213;-82
2022/05/10 11:47:13;;;;;;;4.10;1.77;;;;;;;;;;5053352;28;20186;-82
2022/05/10 11:50:04;;;;;;;2.23;1.53;;;;;;;;;;5053414;28;20186;-82
2022/05/10 11:53:16;;;;;;;3.93;2.13;;;;;;;;;;5053309;28;20217;-82
2022/05/10 11:55:51;;;;;;;2.00;1.80;;;;;;;;;;5053005;28;20196;-82
2022/05/10 11:58:19;;;;;;;2.17;1.80;;;;;;;;;;5053201;28;20276;-82
2022/05/10 12:00:51;;;;;;;2.23;1.93;;;;;;;;;;5052821;28;20198;-82
2022/05/10 12:03:57;;;;;;;3.43;2.37;;;;;;;;;;5053019;28;20274;-82
2022/05/10 12:06:42;;;;;;;8.37;2.10;;;;;;;;;;5048303;28;20289;-82
2022/05/10 12:09:16;;;;;;;5.73;2.90;;;;;;;;;;5052932;28;20233;-81
2022/05/10 12:11:44;;;;;;;2.40;2.10;;;;;;;;;;5053429;28;20194;-81
2022/05/10 12:24:00;;;;;;;4.30;1.70;;;;;;;;;;5053014;28;20181;-82
2022/05/10 12:26:37;;;;;;;2.53;1.67;;;;;;;;;;5053066;28;20613;-82
2022/05/10 12:29:06;;;;;;;5.73;1.57;;;;;;;;;;5052629;28;20280;-81
2022/05/10 12:31:55;;;;;;;4.80;2.83;;;;;;;;;;5052407;28;20292;-81
2022/05/10 12:34:43;;;;;;;2.10;1.83;;;;;;;;;;5052514;28;20649;-82
2022/05/10 12:37:39;;;;;;;5.20;1.80;;;;;;;;;;5053005;28;20713;-82
2022/05/10 12:40:19;;;;;;;3.00;2.03;;;;;;;;;;5026525;28;20690;-82
2022/05/10 12:43:28;;;;;;;2.63;2.27;;;;;;;;;;5051589;28;20252;-82
2022/05/10 12:45:59;;;;;;;1.80;1.70;;;;;;;;;;5052439;28;20201;-82
2022/05/10 12:48:40;;;;;;;2.20;1.83;;;;;;;;;;5052451;28;20193;-82
2022/05/10 12:51:32;;;;;;;3.47;1.73;;;;;;;;;;5052096;28;20229;-81
2022/05/10 12:54:01;;;;;;;2.13;1.50;;;;;;;;;;5051992;28;20245;-81
2022/05/10 12:56:30;;;;;;;6.40;3.00;;;;;;;;;;5052031;28;20288;-81
2022/05/10 12:59:04;;;;;;;2.93;1.63;;;;;;;;;;5052219;28;20273;-82
2022/05/10 13:01:35;;;;;;;7.80;2.90;;;;;;;;;;5051968;28;20281;-81
2022/05/10 13:04:08;;;;;;;2.87;1.87;;;;;;;;;;5052393;28;20569;-81
2022/05/10 13:06:39;;;;;;;2.73;2.07;;;;;;;;;;5052166;28;20194;-82
2022/05/10 13:09:20;;;;;;;10.83;4.83;;;;;;;;;;5051961;28;20718;-81
2022/05/10 13:11:50;;;;;;;4.87;3.03;;;;;;;;;;5052099;28;20182;-82
2022/05/10 13:14:19;;;;;;;6.60;2.00;;;;;;;;;;5051787;28;20216;-81
2022/05/10 13:16:48;;;;;;;4.83;1.60;;;;;;;;;;5052286;28;20273;-81
2022/05/10 13:19:16;;;;;;;2.20;1.93;;;;;;;;;;5051456;28;20194;-81
2022/05/10 13:21:43;;;;;;;2.90;2.40;;;;;;;;;;5051997;28;20233;-81
2022/05/10 13:24:13;;;;;;;3.40;1.93;;;;;;;;;;5051416;28;20290;-81
2022/05/10 13:26:58;;;;;;;1.93;1.70;;;;;;;;;;5052223;28;20285;-81
2022/05/10 13:29:42;;;;;;;2.30;1.87;;;;;;;;;;5051954;28;20668;-81
2022/05/10 13:32:14;;;;;;;2.03;1.93;;;;;;;;;;5051842;28;20646;-81
2022/05/10 13:34:51;;;;;;;1.70;1.50;;;;;;;;;;5051572;28;20205;-81
2022/05/10 13:37:28;;;;;;;2.13;1.70;;;;;;;;;;5051801;28;20284;-82
2022/05/10 13:39:55;;;;;;;1.90;1.63;;;;;;;;;;5051583;28;20236;-81
2022/05/10 13:42:22;;;;;;;2.67;1.57;;;;;;;;;;5051733;28;20205;-81
2022/05/10 13:44:51;;;;;;;4.00;1.40;;;;;;;;;;5051770;28;20198;-81
2022/05/10 13:47:28;;;;;;;11.90;8.10;;;;;;;;;;5051935;28;20220;-81
2022/05/10 13:49:57;;;;;;;7.53;2.27;;;;;;;;;;5051424;28;20181;-82
2022/05/10 13:52:32;;;;;;;2.30;2.10;;;;;;;;;;5051502;28;20285;-81
2022/05/10 13:55:02;;;;;;;7.30;6.47;;;;;;;;;;5053381;28;20259;-82
2022/05/10 13:57:31;;;;;;;1.60;1.50;;;;;;;;;;5055143;28;20256;-81
2022/05/10 14:00:01;;;;;;;2.90;2.17;;;;;;;;;;5055385;28;20281;-81
2022/05/10 14:02:32;;;;;;;3.20;1.93;;;;;;;;;;5055615;28;20286;-82
2022/05/10 14:04:59;;;;;;;2.90;1.47;;;;;;;;;;5055357;28;20190;-82
2022/05/10 14:07:29;;;;;;;8.17;6.80;;;;;;;;;;5055043;28;20741;-82
2022/05/10 14:09:57;;;;;;;3.87;2.13;;;;;;;;;;5055247;28;20662;-81
2022/05/10 14:12:30;;;;;;;2.30;1.63;;;;;;;;;;5055334;28;20288;-81
2022/05/10 14:15:00;;;;;;;1.87;1.53;;;;;;;;;;5055238;28;20182;-82
2022/05/10 14:17:27;;;;;;;2.87;2.27;;;;;;;;;;5055190;28;20633;-82
2022/05/10 14:19:56;;;;;;;2.50;1.97;;;;;;;;;;5054972;28;20201;-82
2022/05/10 14:22:24;;;;;;;5.13;2.47;;;;;;;;;;5055148;28;20194;-82
2022/05/10 14:24:53;;;;;;;1.77;1.40;;;;;;;;;;5054698;28;20277;-81
2022/05/10 14:27:23;;;;;;;2.17;1.60;;;;;;;;;;5055009;28;20557;-82
2022/05/10 14:29:53;;;;;;;3.17;1.93;;;;;;;;;;5054893;28;20205;-82
2022/05/10 14:32:34;;;;;;;2.60;1.77;;;;;;;;;;5054996;28;20190;-82
2022/05/10 14:35:02;;;;;;;3.10;1.50;;;;;;;;;;5054578;28;20193;-82
2022/05/10 14:37:39;;;;;;;3.30;1.60;;;;;;;;;;5054820;28;20198;-82
2022/05/10 14:40:24;;;;;;;2.53;1.60;;;;;;;;;;5054666;28;20196;-82
2022/05/10 14:42:58;;;;;;;1.97;1.77;;;;;;;;;;5054070;28;20255;-82
2022/05/10 14:45:39;;;;;;;1.10;1.03;;;;;;;;;;5054524;28;20673;-81
2022/05/10 14:48:28;;;;;;;3.93;3.43;;;;;;;;;;5055048;28;20568;-82
2022/05/10 14:50:57;;;;;;;4.63;2.27;;;;;;;;;;5054645;28;20194;-81
2022/05/10 14:53:26;;;;;;;3.33;1.73;;;;;;;;;;5054368;28;20713;-82
2022/05/10 14:56:13;;;;;;;3.97;1.50;;;;;;;;;;5054357;28;20288;-82
2022/05/10 14:58:42;;;;;;;28.40;20.60;;;;;;;;;;5064189;28;20270;-81
2022/05/10 15:01:13;;;;;;;10.80;9.90;;;;;;;;;;5074182;28;20209;-81
2022/05/10 15:04:01;;;;;;;3.20;1.90;;;;;;;;;;5074413;28;20182;-81
2022/05/10 15:06:29;;;;;;;3.60;1.37;;;;;;;;;;5073504;28;20182;-81
2022/05/10 15:08:56;;;;;;;6.63;1.60;;;;;;;;;;5074141;28;20227;-82
2022/05/10 15:11:24;;;;;;;3.30;1.73;;;;;;;;;;5074401;28;20196;-81
2022/05/10 15:13:51;;;;;;;1.73;1.63;;;;;;;;;;5073979;28;20220;-81
2022/05/10 15:16:19;;;;;;;1.70;1.60;;;;;;;;;;5073918;28;20236;-81
2022/05/10 15:18:59;;;;;;;1.50;1.40;;;;;;;;;;5074374;28;20586;-82
2022/05/10 15:21:30;;;;;;;3.23;1.70;;;;;;;;;;5074243;28;20185;-82
2022/05/10 15:23:57;;;;;;;6.10;1.43;;;;;;;;;;5073879;28;20186;-82
2022/05/10 15:26:27;;;;;;;3.90;1.53;;;;;;;;;;5073731;28;20197;-82